createdAt,value
2022-10-24T04:01:31.864Z,99.90
2022-10-24T04:03:59.803Z,99.90
2022-10-24T04:06:28.718Z,99.90
2022-10-24T04:08:58.282Z,99.90
2022-10-24T04:11:26.472Z,99.90
2022-10-24T04:13:54.348Z,99.90
2022-10-24T04:16:24.222Z,99.90
2022-10-24T04:18:53.384Z,99.90
2022-10-24T04:21:22.011Z,99.90
2022-10-24T04:23:50.376Z,99.90
2022-10-24T04:26:19.145Z,99.90
2022-10-24T04:28:47.755Z,99.90
2022-10-24T04:31:19.473Z,99.90
2022-10-24T04:33:52.642Z,99.90
2022-10-24T04:36:21.919Z,99.90
2022-10-24T04:38:49.723Z,99.90
2022-10-24T04:41:17.597Z,99.90
2022-10-24T04:43:45.319Z,99.90
2022-10-24T04:46:13.013Z,99.90
2022-10-24T04:48:40.727Z,99.90
2022-10-24T04:51:08.441Z,99.90
2022-10-24T04:53:37.875Z,99.90
2022-10-24T04:56:06.262Z,99.90
2022-10-24T04:58:33.997Z,99.90
2022-10-24T05:01:01.855Z,99.90
2022-10-24T05:03:29.702Z,99.90
2022-10-24T05:05:59.666Z,99.90
2022-10-24T05:08:27.543Z,99.90
2022-10-24T05:10:56.668Z,99.90
2022-10-24T05:13:24.558Z,99.90
2022-10-24T05:15:52.303Z,99.90
2022-10-24T05:18:20.105Z,99.90
2022-10-24T05:20:48.346Z,99.90
2022-10-24T05:23:16.084Z,99.90
2022-10-24T05:25:43.894Z,99.90
2022-10-24T05:28:12.939Z,99.90
2022-10-24T05:30:40.794Z,99.90
2022-10-24T05:33:08.838Z,99.90
2022-10-24T05:35:36.569Z,99.90
2022-10-24T05:38:04.535Z,99.90
2022-10-24T05:40:32.288Z,99.90
2022-10-24T05:42:59.973Z,99.90
2022-10-24T05:45:29.282Z,99.90
2022-10-24T05:47:57.059Z,99.90
2022-10-24T05:50:26.626Z,99.90
2022-10-24T05:52:54.604Z,99.90
2022-10-24T05:55:22.346Z,99.90
2022-10-24T05:57:50.055Z,99.90
2022-10-24T06:00:18.270Z,99.90
2022-10-24T06:02:47.970Z,99.90
2022-10-24T06:05:15.972Z,99.90
2022-10-24T06:07:44.257Z,99.90
2022-10-24T06:10:14.149Z,99.90
2022-10-24T06:12:42.156Z,99.90
2022-10-24T06:15:13.259Z,99.90
2022-10-24T06:17:41.025Z,99.90
2022-10-24T06:20:11.256Z,99.90
2022-10-24T06:22:39.369Z,99.90
2022-10-24T06:25:07.719Z,99.90
2022-10-24T06:27:35.476Z,99.90
2022-10-24T06:32:31.272Z,99.90
2022-10-24T06:34:59.030Z,99.90
2022-10-24T06:37:30.082Z,99.90
2022-10-24T06:39:57.822Z,99.90
2022-10-24T06:42:26.103Z,99.90
2022-10-24T06:44:53.880Z,99.90
2022-10-24T06:47:21.635Z,99.90
2022-10-24T06:49:49.409Z,99.90
2022-10-24T06:52:17.144Z,99.90
2022-10-24T06:57:18.096Z,99.90
2022-10-24T06:59:45.966Z,99.90
2022-10-24T07:02:14.863Z,99.90
2022-10-24T07:04:42.765Z,99.90
2022-10-24T07:07:15.464Z,99.90
2022-10-24T07:09:43.333Z,99.90
2022-10-24T07:12:12.721Z,99.90
2022-10-24T07:14:40.986Z,99.90
2022-10-24T07:17:09.028Z,99.90
2022-10-24T07:19:37.548Z,99.90
2022-10-24T07:22:06.532Z,99.90
2022-10-24T07:24:34.662Z,99.90
2022-10-24T07:27:02.600Z,99.90
2022-10-24T07:29:31.750Z,99.90
2022-10-24T07:31:59.542Z,99.90
2022-10-24T07:34:27.256Z,99.90
2022-10-24T07:36:54.978Z,99.90
2022-10-24T07:39:22.740Z,99.90
2022-10-24T07:41:50.449Z,99.90
2022-10-24T07:44:18.272Z,99.90
2022-10-24T07:46:47.374Z,99.90
2022-10-24T07:49:15.125Z,99.90
2022-10-24T07:51:43.197Z,99.90
2022-10-24T07:54:15.228Z,99.90
2022-10-24T07:56:43.098Z,99.90
2022-10-24T07:59:23.950Z,99.90
2022-10-24T08:02:00.091Z,99.90
2022-10-24T08:04:29.234Z,99.90
2022-10-24T08:06:58.002Z,99.90
2022-10-24T08:09:26.501Z,99.90
2022-10-24T08:11:54.251Z,99.90
2022-10-24T08:14:21.998Z,99.90
2022-10-24T08:16:49.841Z,99.90
2022-10-24T08:19:19.001Z,99.90
2022-10-24T08:21:46.784Z,99.90
2022-10-24T08:24:14.506Z,99.90
2022-10-24T08:26:42.270Z,99.90
2022-10-24T08:29:11.737Z,99.90
2022-10-24T08:31:40.014Z,99.90
2022-10-24T08:34:08.200Z,99.90
2022-10-24T08:36:37.253Z,99.90
2022-10-24T08:39:05.298Z,99.90
2022-10-24T08:41:36.927Z,99.90
2022-10-24T08:44:14.243Z,99.90
2022-10-24T08:46:50.260Z,99.90
2022-10-24T08:49:25.096Z,99.90
2022-10-24T08:51:57.542Z,99.90
2022-10-24T08:54:30.894Z,99.90
2022-10-24T08:56:59.931Z,99.90
2022-10-24T08:59:30.519Z,99.90
2022-10-24T09:02:04.190Z,99.90
2022-10-24T09:04:40.386Z,99.90
2022-10-24T09:07:18.439Z,97.20
2022-10-24T09:09:51.004Z,96.70
2022-10-24T09:12:21.041Z,95.60
2022-10-24T09:14:57.130Z,91.40
2022-10-24T09:17:30.160Z,91.30
2022-10-24T09:20:01.040Z,90.20
2022-10-24T09:22:33.352Z,78.60
2022-10-24T09:25:04.231Z,79.20
2022-10-24T09:27:35.965Z,75.30
2022-10-24T09:30:05.132Z,80.30
2022-10-24T09:32:34.841Z,87.80
2022-10-24T09:35:06.197Z,91.20
2022-10-24T09:37:44.188Z,90.40
2022-10-24T09:40:19.129Z,92.70
2022-10-24T09:42:54.707Z,90.70
2022-10-24T09:45:36.206Z,63.90
2022-10-24T09:48:07.958Z,67.80
2022-10-24T09:50:37.069Z,57.10
2022-10-24T09:53:06.687Z,30.00
2022-10-24T09:55:45.569Z,30.00
2022-10-24T09:58:19.686Z,33.60
2022-10-24T10:00:59.461Z,33.60
2022-10-24T10:03:28.301Z,33.50
2022-10-24T10:05:58.298Z,14.80
2022-10-24T10:08:32.046Z,14.30
2022-10-24T10:11:06.348Z,14.60
2022-10-24T10:13:40.779Z,12.90
2022-10-24T10:16:12.715Z,1.00
2022-10-24T10:18:46.747Z,1.00
2022-10-24T10:21:16.776Z,1.00
2022-10-24T10:23:47.981Z,1.00
2022-10-24T10:26:22.876Z,1.00
2022-10-24T10:29:21.773Z,1.00
2022-10-24T10:31:54.190Z,1.00
2022-10-24T10:34:29.685Z,1.00
2022-10-24T10:37:30.055Z,1.00
2022-10-24T10:40:19.247Z,1.00
2022-10-24T10:42:58.746Z,1.00
2022-10-24T10:45:35.829Z,1.00
2022-10-24T10:48:17.940Z,1.00
2022-10-24T10:50:50.216Z,1.00
2022-10-24T10:53:30.489Z,1.00
2022-10-24T10:56:04.888Z,1.00
2022-10-24T10:58:42.028Z,1.00
2022-10-24T11:01:18.161Z,1.00
2022-10-24T11:03:51.552Z,1.00
2022-10-24T11:06:31.689Z,1.00
2022-10-24T11:09:25.046Z,1.00
2022-10-24T11:12:02.356Z,1.00
2022-10-24T11:14:34.068Z,1.00
2022-10-24T11:17:11.164Z,1.00
2022-10-24T11:19:46.811Z,1.00
2022-10-24T11:22:20.335Z,1.00
2022-10-24T11:24:56.545Z,1.00
2022-10-24T11:27:32.551Z,1.00
2022-10-24T11:30:05.468Z,1.00
2022-10-24T11:32:38.196Z,1.00
2022-10-24T11:35:22.244Z,1.00
2022-10-24T11:37:54.443Z,1.00
2022-10-24T11:40:23.739Z,1.00
2022-10-24T11:42:59.166Z,1.00
2022-10-24T11:45:30.887Z,1.00
2022-10-24T11:48:06.278Z,1.00
2022-10-24T11:50:40.199Z,1.00
2022-10-24T11:53:21.972Z,1.00
2022-10-24T11:55:55.753Z,1.00
2022-10-24T11:58:28.933Z,1.00
2022-10-24T12:01:12.894Z,1.00
2022-10-24T12:04:17.196Z,1.00
2022-10-24T12:07:21.710Z,1.00
2022-10-24T12:10:04.450Z,1.00
2022-10-24T12:12:48.248Z,1.00
2022-10-24T12:15:32.349Z,1.00
2022-10-24T12:18:07.727Z,1.00
2022-10-24T12:20:37.014Z,1.00
2022-10-24T12:23:05.192Z,1.00
2022-10-24T12:25:35.534Z,1.00
2022-10-24T12:28:05.543Z,1.00
2022-10-24T12:30:36.565Z,1.00
2022-10-24T12:33:25.698Z,1.00
2022-10-24T12:35:57.024Z,1.00
2022-10-24T12:39:07.788Z,1.00
2022-10-24T12:41:44.147Z,1.00
2022-10-24T12:44:43.300Z,1.00
2022-10-24T12:47:40.780Z,1.00
2022-10-24T12:50:45.931Z,1.00
2022-10-24T12:53:32.416Z,1.00
2022-10-24T12:56:10.439Z,1.00
2022-10-24T12:58:39.545Z,1.00
2022-10-24T13:01:25.019Z,1.00
2022-10-24T13:04:26.164Z,1.00
2022-10-24T13:07:18.361Z,1.00
2022-10-24T13:09:57.107Z,1.00
2022-10-24T13:12:49.422Z,1.00
2022-10-24T13:15:26.030Z,1.00
2022-10-24T13:18:07.192Z,1.00
2022-10-24T13:20:39.687Z,1.00
2022-10-24T13:23:15.875Z,1.00
2022-10-24T13:25:44.457Z,1.00
2022-10-24T13:28:38.953Z,1.00
2022-10-24T13:31:42.571Z,1.00
2022-10-24T13:34:23.033Z,1.00
2022-10-24T13:36:59.450Z,1.00
2022-10-24T13:39:33.109Z,1.00
2022-10-24T13:42:08.392Z,1.00
2022-10-24T13:44:45.253Z,1.00
2022-10-24T13:47:19.225Z,1.00
2022-10-24T13:49:54.227Z,1.00
2022-10-24T13:52:27.898Z,1.00
2022-10-24T13:55:00.575Z,1.00
2022-10-24T13:57:35.930Z,1.00
2022-10-24T14:00:08.396Z,1.00
2022-10-24T14:02:41.320Z,1.00
2022-10-24T14:07:49.013Z,1.00
2022-10-24T14:10:17.125Z,1.00
2022-10-24T14:12:45.829Z,1.00
2022-10-24T14:15:19.144Z,1.00
2022-10-24T14:17:56.429Z,1.00
2022-10-24T14:20:26.929Z,1.00
2022-10-24T14:22:56.204Z,1.00
2022-10-24T14:25:26.756Z,1.00
2022-10-24T14:27:55.828Z,1.00
2022-10-24T14:30:26.967Z,1.00
2022-10-24T14:33:08.040Z,1.00
2022-10-24T14:35:36.469Z,1.00
2022-10-24T14:38:09.720Z,1.00
2022-10-24T14:40:38.025Z,1.00
2022-10-24T14:43:06.306Z,1.00
2022-10-24T14:45:34.516Z,1.00
2022-10-24T14:48:03.306Z,1.00
2022-10-24T14:50:37.203Z,1.00
2022-10-24T14:53:07.067Z,1.00
2022-10-24T14:55:34.795Z,1.00
2022-10-24T14:58:02.741Z,1.00
2022-10-24T15:00:38.325Z,1.00
2022-10-24T15:03:07.011Z,1.00
2022-10-24T15:05:35.708Z,1.00
2022-10-24T15:08:25.589Z,1.00
2022-10-24T15:11:17.051Z,1.00
2022-10-24T15:13:48.154Z,1.00
2022-10-24T15:16:30.373Z,1.00
2022-10-24T15:18:59.290Z,1.00
2022-10-24T15:21:33.171Z,1.00
2022-10-24T15:24:03.256Z,1.00
2022-10-24T15:26:35.378Z,1.00
2022-10-24T15:29:18.208Z,1.00
2022-10-24T15:31:47.991Z,1.00
2022-10-24T15:34:17.700Z,1.00
2022-10-24T15:36:47.422Z,1.00
2022-10-24T15:39:20.852Z,1.00
2022-10-24T15:41:49.459Z,1.00
2022-10-24T15:44:20.463Z,1.00
2022-10-24T15:46:49.591Z,1.00
2022-10-24T15:49:17.824Z,1.00
2022-10-24T15:51:50.180Z,1.00
2022-10-24T15:54:21.946Z,1.00
2022-10-24T15:56:49.898Z,1.00
2022-10-24T15:59:18.429Z,1.00
2022-10-24T16:01:49.615Z,1.00
2022-10-24T16:04:18.337Z,1.00
2022-10-24T16:06:46.123Z,1.00
2022-10-24T16:09:15.912Z,1.00
2022-10-24T16:11:45.357Z,1.00
2022-10-24T16:14:15.326Z,1.00
2022-10-24T16:16:43.514Z,1.00
2022-10-24T16:19:11.508Z,1.00
2022-10-24T16:21:40.689Z,1.00
2022-10-24T16:24:09.558Z,1.00
2022-10-24T16:26:37.742Z,1.00
2022-10-24T16:29:09.532Z,1.00
2022-10-24T16:31:38.189Z,1.00
2022-10-24T16:34:07.305Z,1.00
2022-10-24T16:36:35.338Z,1.00
2022-10-24T16:39:03.426Z,1.00
2022-10-24T16:41:31.163Z,1.00
2022-10-24T16:43:59.322Z,1.00
2022-10-24T16:46:29.067Z,1.00
2022-10-24T16:48:57.239Z,1.00
2022-10-24T16:51:31.859Z,1.00
2022-10-24T16:53:59.836Z,1.00
2022-10-24T16:56:27.781Z,1.00
2022-10-24T16:58:55.580Z,1.00
2022-10-24T17:01:23.843Z,1.00
2022-10-24T17:03:53.054Z,1.00
2022-10-24T17:06:20.884Z,1.00
2022-10-24T17:08:48.750Z,1.00
2022-10-24T17:11:43.445Z,1.00
2022-10-24T17:14:04.300Z,1.00
2022-10-24T17:16:32.253Z,1.00
2022-10-24T17:19:17.628Z,1.00
2022-10-24T17:21:47.884Z,1.00
2022-10-24T17:24:17.443Z,1.00
2022-10-24T17:26:45.498Z,1.00
2022-10-24T17:29:16.071Z,1.00
2022-10-24T17:31:44.027Z,1.00
2022-10-24T17:34:13.409Z,1.00
2022-10-24T17:36:42.818Z,1.00
2022-10-24T17:39:14.432Z,1.00
2022-10-24T17:44:15.978Z,1.00
2022-10-24T17:46:43.983Z,1.00
2022-10-24T17:49:16.477Z,1.00
2022-10-24T17:51:47.828Z,1.00
2022-10-24T17:56:44.526Z,1.00
2022-10-24T17:59:12.400Z,1.00
2022-10-24T18:01:40.238Z,1.00
2022-10-24T18:04:08.332Z,1.00
2022-10-24T18:06:40.747Z,1.00
2022-10-24T18:09:11.152Z,1.00
2022-10-24T18:11:39.825Z,1.00
2022-10-24T18:14:07.711Z,1.00
2022-10-24T18:16:36.983Z,1.00
2022-10-24T18:19:05.287Z,1.00
2022-10-24T18:21:33.597Z,1.00
2022-10-24T18:24:02.708Z,1.00
2022-10-24T18:26:30.458Z,1.00
2022-10-24T18:28:58.705Z,1.00
2022-10-24T18:31:29.136Z,1.00
2022-10-24T18:34:00.135Z,1.00
2022-10-24T18:36:31.632Z,1.00
2022-10-24T18:39:01.282Z,1.00
2022-10-24T18:41:42.895Z,1.00
2022-10-24T18:44:27.639Z,1.00
2022-10-24T18:47:01.155Z,1.00
2022-10-24T18:49:29.935Z,1.00
2022-10-24T18:52:14.602Z,1.00
2022-10-24T18:54:51.091Z,1.00
2022-10-24T18:57:23.802Z,1.00
2022-10-24T18:59:51.879Z,1.00
2022-10-24T19:02:28.246Z,1.00
2022-10-24T19:05:05.600Z,1.00
2022-10-24T19:07:33.569Z,1.00
2022-10-24T19:10:01.656Z,1.00
2022-10-24T19:12:31.018Z,1.00
2022-10-24T19:14:59.174Z,1.00
2022-10-24T19:17:26.962Z,1.00
2022-10-24T19:19:57.577Z,1.00
2022-10-24T19:22:26.403Z,1.00
2022-10-24T19:24:54.221Z,1.00
2022-10-24T19:27:22.001Z,1.00
2022-10-24T19:29:51.516Z,1.00
2022-10-24T19:32:19.214Z,1.00
2022-10-24T19:34:47.133Z,1.00
2022-10-24T19:37:15.722Z,1.00
2022-10-24T19:39:43.659Z,1.00
2022-10-24T19:42:11.520Z,1.00
2022-10-24T19:44:39.419Z,1.00
2022-10-24T19:47:08.575Z,1.00
2022-10-24T19:49:36.359Z,1.00
2022-10-24T19:52:04.232Z,1.00
2022-10-24T19:54:31.954Z,1.00
2022-10-24T19:56:59.709Z,1.00
2022-10-24T19:59:31.678Z,1.00
2022-10-24T20:01:59.430Z,1.00
2022-10-24T20:04:28.760Z,1.00
2022-10-24T20:06:56.506Z,1.00
2022-10-24T20:09:24.253Z,1.00
2022-10-24T20:11:52.065Z,1.00
2022-10-24T20:14:19.925Z,1.00
2022-10-24T20:16:47.646Z,1.00
2022-10-24T20:19:16.062Z,1.00
2022-10-24T20:21:45.380Z,1.00
2022-10-24T20:24:13.294Z,1.00
2022-10-24T20:26:41.094Z,1.00
2022-10-24T20:29:08.899Z,1.00
2022-10-24T20:31:39.196Z,1.00
2022-10-24T20:34:10.634Z,1.00
2022-10-24T20:36:39.672Z,1.00
2022-10-24T20:39:09.676Z,1.00
2022-10-24T20:41:38.399Z,1.00
2022-10-24T20:44:07.439Z,1.00
2022-10-24T20:46:35.444Z,1.00
2022-10-24T20:49:03.354Z,1.00
2022-10-24T20:51:31.166Z,1.00
2022-10-24T20:53:58.927Z,1.00
2022-10-24T20:56:28.237Z,1.00
2022-10-24T20:58:56.935Z,1.00
2022-10-24T21:01:26.879Z,1.00
2022-10-24T21:03:55.597Z,1.00
2022-10-24T21:06:24.842Z,1.00
2022-10-24T21:08:54.188Z,1.00
2022-10-24T21:11:25.124Z,1.00
2022-10-24T21:13:56.195Z,1.00
2022-10-24T21:16:24.590Z,1.00
2022-10-24T21:18:52.532Z,1.00
2022-10-24T21:21:21.320Z,1.00
2022-10-24T21:23:51.919Z,1.00
2022-10-24T21:26:20.996Z,1.00
2022-10-24T21:28:49.393Z,1.00
2022-10-24T21:31:19.878Z,1.00
2022-10-24T21:33:49.107Z,1.00
2022-10-24T21:36:18.476Z,1.00
2022-10-24T21:38:48.395Z,1.00
2022-10-24T21:41:16.598Z,1.00
2022-10-24T21:43:44.384Z,1.00
2022-10-24T21:46:14.037Z,1.00
2022-10-24T21:48:44.349Z,1.00
2022-10-24T21:51:15.290Z,1.00
2022-10-24T21:53:45.190Z,1.00
2022-10-24T21:56:17.780Z,1.00
2022-10-24T21:58:47.709Z,1.00
2022-10-24T22:01:17.401Z,1.00
2022-10-24T22:03:47.191Z,1.00
2022-10-24T22:06:16.817Z,1.00
2022-10-24T22:08:46.530Z,1.00
2022-10-24T22:11:16.684Z,1.00
2022-10-24T22:13:44.963Z,1.00
2022-10-24T22:16:14.408Z,1.00
2022-10-24T22:18:42.552Z,1.00
2022-10-24T22:21:21.582Z,1.00
2022-10-24T22:23:49.715Z,1.00
2022-10-24T22:26:17.523Z,1.00
2022-10-24T22:28:45.251Z,1.00
2022-10-24T22:31:15.050Z,1.00
2022-10-24T22:36:31.894Z,1.00
2022-10-24T22:39:00.563Z,1.00
2022-10-24T22:41:29.698Z,1.00
2022-10-24T22:43:58.005Z,1.00
2022-10-24T22:46:39.343Z,1.00
2022-10-24T22:49:17.710Z,1.00
2022-10-24T22:51:47.597Z,1.00
2022-10-24T22:54:20.070Z,1.00
2022-10-24T22:59:17.151Z,1.00
